Terminal Aerodrome Forecast
Issued by NWS Cleveland, OH

Home | Current Version | Previous Version | Text Only | Print | Product List | Glossary On
Versions: 1 2 3 4 5 6 7 8 9 10 11 12 13 14 15 16 17
000
FTUS41 KCLE 210500
TAFTOL
TAF
KTOL 210537Z 2106/2206 32007KT P6SM BKN025 OVC050
      TEMPO 2106/2110 SCT018 BKN050
     FM211100 32008KT P6SM BKN018 OVC040
     FM211500 33012G20KT P6SM OVC025
     FM220200 36009KT P6SM BKN030=

USA.gov is the U.S. government's official web portal to all federal, state and local government web resources and services.